EDT,Max TemperatureF,Mean TemperatureF,Min TemperatureF,Max Dew PointF,MeanDew PointF,Min DewpointF,Max Humidity, Mean Humidity, Min Humidity, Max Sea Level PressureIn, Mean Sea Level PressureIn, Min Sea Level PressureIn, Max VisibilityMiles, Mean VisibilityMiles, Min VisibilityMiles, Max Wind SpeedMPH, Mean Wind SpeedMPH, Max Gust SpeedMPH,PrecipitationIn, CloudCover, Events, WindDirDegrees
2011-10-1,63,57,50,63,58,48,100,95,90,29.81,29.68,29.63,10,5,1,14,6,18,0.60,8,Rain,344
2011-10-2,60,56,52,56,54,51,100,89,78,29.93,29.88,29.83,10,6,1,15,5,20,0.09,8,Rain,4
2011-10-3,66,59,51,56,53,48,100,80,60,30.08,30.02,29.93,10,8,1,14,1,43,0.11,6,Rain,133
2011-10-4,60,56,51,57,53,51,100,90,80,30.05,29.98,29.92,10,6,1,10,5,21,1.49,8,Rain,326
2011-10-5,63,50,36,52,41,29,93,65,36,30.22,30.03,29.91,10,10,10,26,10,38,0.00,3,,324
2011-10-6,59,45,30,33,27,21,100,62,23,30.37,30.27,30.22,10,10,10,21,7,29,0.00,0,,320
2011-10-7,64,47,30,42,34,28,100,65,30,30.47,30.41,30.37,10,10,10,9,1,13,0.00,1,,285
2011-10-8,80,59,38,54,47,38,100,68,35,30.44,30.37,30.33,10,8,1,12,2,14,0.00,0,,298
2011-10-9,85,63,41,57,47,41,100,63,25,30.36,30.31,30.22,10,6,0,10,1,15,0.00,0,Fog,331
2011-10-10,81,62,43,55,49,43,100,71,42,30.23,30.18,30.10,10,6,1,17,5,24,0.00,0,,329
2011-10-11,68,55,41,51,44,39,100,69,37,30.28,30.23,30.18,10,6,0,8,2,12,0.00,0,Fog,124
2011-10-12,59,51,42,48,44,42,100,79,57,30.29,30.26,30.24,10,10,10,9,3,14,0.01,1,,113
2011-10-13,60,57,53,56,55,54,93,89,84,30.42,30.33,29.83,10,8,2,13,8,18,0.06,8,Rain,29
2011-10-14,65,62,58,63,59,57,100,95,90,30.41,29.68,29.56,10,7,1,26,7,39,0.78,8,Rain,83
2011-10-15,63,55,46,61,57,52,97,70,43,30.40,30.05,29.26,10,9,4,28,12,39,0.05,7,Rain,204
2011-10-16,64,57,49,41,40,39,71,54,36,30.41,30.33,29.63,10,10,10,21,8,29,T,6,Rain,233
2011-10-17,62,52,41,46,44,43,89,59,29,30.41,30.35,29.59,10,10,10,23,7,32,T,8,,166
2011-10-18,62,50,37,44,39,36,100,71,42,29.96,29.83,29.70,10,10,10,13,3,17,0.00,0,,207
2011-10-19,57,48,39,52,46,38,100,81,62,30.03,29.89,29.68,10,7,2,16,4,22,0.46,7,Rain,40
2011-10-20,66,57,48,59,52,46,93,78,63,29.67,29.54,29.44,10,9,4,17,6,23,0.27,6,Rain,112
2011-10-21,62,52,41,43,41,39,96,71,46,29.94,29.80,29.65,10,10,10,17,6,23,0.00,4,,216
2011-10-22,59,47,35,44,40,37,100,74,47,30.07,30.00,29.94,10,10,9,14,2,20,0.00,6,,287
2011-10-23,53,42,30,40,34,30,100,75,50,30.15,30.10,30.06,10,6,0,8,1,12,0.00,3,Fog,294
2011-10-24,56,43,30,47,36,28,100,83,66,30.16,30.09,29.92,10,5,0,10,2,14,0.02,5,Fog-Rain,158
2011-10-25,58,47,35,48,37,29,100,72,43,29.97,29.90,29.86,10,5,0,22,8,32,0.00,2,Fog-Rain,311
2011-10-26,47,39,30,41,36,29,96,83,70,29.99,29.89,29.77,10,10,10,5,1,6,T,6,Rain,283
2011-10-27,44,38,32,41,36,32,100,93,85,29.90,29.78,29.72,10,6,1,13,5,17,0.80,8,Rain-Snow,349
2011-10-28,46,37,28,31,27,24,100,73,45,30.27,30.12,29.91,10,10,10,21,7,26,0.00,1,,306
2011-10-29,39,32,24,32,28,24,100,77,54,30.29,30.15,29.91,10,4,0,15,5,20,0.82,4,Fog-Snow,17
2011-10-30,41,32,23,31,29,24,100,80,59,30.28,29.96,29.80,10,6,0,26,11,36,0.79,4,Fog-Snow,321
2011-10-31,48,34,19,30,24,17,100,73,45,30.42,30.36,30.30,10,7,0,12,1,15,0.00,0,Fog,162